Hoboksar, China
Current Conditions -  °F | °C
As of 5:00 PM on Wednesday 26 Nov 2014 (Local Time) from ZWWW Reporting Station
Broken Clouds Broken Clouds  
Wind Chill: 17°   Ceiling: 2600
Heat Index: 23°   Visibility: 4mi
Dew Point: 19°   Wind: 4mph
Humidity: 86%   Direction: 10°N
Pressure: 30.36"   Gusts: NA
Location:  46.78°N, 85.72°E
Report Text: ZWWW 260900Z 01002MPS 340V050 6000 BKN026 M05/M07 Q1028 NOSIG
Loading
Personal Weather Stations






























Interactive Weather Map New forecast layout! Learn more

10-Day Weather Forecast

Advertisements
Track Severe Weather on mobile